createdAt,value
2023-06-07T00:00:02.078Z,17.09
2023-06-07T00:01:01.692Z,17.07
2023-06-07T00:02:01.779Z,17.05
2023-06-07T00:03:01.774Z,17.02
2023-06-07T00:04:02.693Z,17.02
2023-06-07T00:05:02.820Z,17.03
2023-06-07T00:06:01.736Z,17.03
2023-06-07T00:07:01.777Z,17.06
2023-06-07T00:08:01.755Z,17.05
2023-06-07T00:09:01.724Z,17.06
2023-06-07T00:10:02.507Z,17.09
2023-06-07T00:11:01.811Z,17.09
2023-06-07T00:12:01.821Z,17.14
2023-06-07T00:13:01.758Z,17.15
2023-06-07T00:14:01.917Z,17.15
2023-06-07T00:15:01.767Z,17.18
2023-06-07T00:16:01.796Z,17.18
2023-06-07T00:17:02.029Z,17.10
2023-06-07T00:18:02.840Z,17.20
2023-06-07T00:19:01.776Z,17.18
2023-06-07T00:20:02.337Z,17.18
2023-06-07T00:21:01.860Z,17.21
2023-06-07T00:22:02.811Z,17.21
2023-06-07T00:23:02.048Z,17.24
2023-06-07T00:24:00.981Z,17.27
2023-06-07T00:25:02.050Z,17.30
2023-06-07T00:26:01.091Z,17.35
2023-06-07T00:27:00.924Z,17.32
2023-06-07T00:28:00.950Z,17.36
2023-06-07T00:29:01.228Z,17.39
2023-06-07T00:30:01.320Z,17.39
2023-06-07T00:31:02.100Z,17.38
2023-06-07T00:32:01.143Z,17.38
2023-06-07T00:33:02.114Z,17.38
2023-06-07T00:34:01.133Z,17.38
2023-06-07T00:35:01.132Z,17.38
2023-06-07T00:36:01.136Z,17.35
2023-06-07T00:37:01.213Z,17.30
2023-06-07T00:38:01.209Z,17.36
2023-06-07T00:39:01.434Z,17.36
2023-06-07T00:40:01.380Z,17.36
2023-06-07T00:41:01.286Z,17.33
2023-06-07T00:42:01.428Z,17.33
2023-06-07T00:43:01.308Z,17.32
2023-06-07T00:44:01.447Z,17.28
2023-06-07T00:45:01.405Z,17.27
2023-06-07T00:46:01.489Z,17.18
2023-06-07T00:47:01.442Z,17.03
2023-06-07T00:48:01.612Z,17.00
2023-06-07T00:49:01.584Z,16.99
2023-06-07T00:50:01.999Z,16.99
2023-06-07T00:51:00.550Z,16.95
2023-06-07T00:52:00.565Z,16.98
2023-06-07T00:53:01.547Z,16.99
2023-06-07T00:54:00.653Z,16.98
2023-06-07T00:55:00.772Z,16.99
2023-06-07T00:56:01.670Z,17.00
2023-06-07T00:57:00.678Z,16.98
2023-06-07T00:58:01.597Z,16.95
2023-06-07T00:59:01.635Z,16.91
2023-06-07T01:00:00.765Z,16.87
2023-06-07T01:01:00.774Z,16.84
2023-06-07T01:02:00.807Z,16.85
2023-06-07T01:03:01.930Z,16.84
2023-06-07T01:04:00.924Z,16.84
2023-06-07T01:05:01.851Z,16.78
2023-06-07T01:06:00.958Z,16.84
2023-06-07T01:07:01.040Z,16.85
2023-06-07T01:08:00.968Z,16.82
2023-06-07T01:09:00.982Z,16.84
2023-06-07T01:10:01.268Z,16.87
2023-06-07T01:11:01.128Z,16.87
2023-06-07T01:12:01.080Z,16.85
2023-06-07T01:13:01.083Z,16.87
2023-06-07T01:14:01.119Z,16.92
2023-06-07T01:15:01.133Z,16.88
2023-06-07T01:16:01.274Z,16.88
2023-06-07T01:17:01.189Z,16.88
2023-06-07T01:18:00.287Z,16.90
2023-06-07T01:19:01.239Z,16.90
2023-06-07T01:20:00.639Z,16.92
2023-06-07T01:21:00.300Z,16.95
2023-06-07T01:22:00.478Z,16.96
2023-06-07T01:23:01.334Z,16.95
2023-06-07T01:24:00.400Z,16.98
2023-06-07T01:25:00.410Z,17.02
2023-06-07T01:26:01.438Z,17.03
2023-06-07T01:27:00.479Z,17.06
2023-06-07T01:28:00.468Z,17.09
2023-06-07T01:29:00.532Z,17.12
2023-06-07T01:30:00.926Z,17.15
2023-06-07T01:31:00.609Z,17.14
2023-06-07T01:32:00.844Z,17.12
2023-06-07T01:33:00.719Z,17.06
2023-06-07T01:34:00.670Z,17.03
2023-06-07T01:35:00.733Z,17.00
2023-06-07T01:36:00.704Z,16.98
2023-06-07T01:37:00.743Z,16.95
2023-06-07T01:38:00.750Z,16.90
2023-06-07T01:39:00.865Z,16.87
2023-06-07T01:40:02.028Z,16.82
2023-06-07T01:41:00.793Z,16.81
2023-06-07T01:42:00.834Z,16.87
2023-06-07T01:43:00.881Z,16.87
2023-06-07T01:44:00.809Z,16.88
2023-06-07T01:44:59.917Z,16.88
2023-06-07T01:46:00.988Z,16.90
2023-06-07T01:46:59.957Z,16.90
2023-06-07T01:48:00.262Z,16.88
2023-06-07T01:49:01.113Z,16.84
2023-06-07T01:50:01.391Z,16.80
2023-06-07T01:51:01.090Z,16.81
2023-06-07T01:52:01.095Z,16.80
2023-06-07T01:53:01.154Z,16.82
2023-06-07T01:54:00.225Z,16.82
2023-06-07T01:55:01.205Z,16.84
2023-06-07T01:56:00.349Z,16.84
2023-06-07T01:57:01.242Z,16.85
2023-06-07T01:58:01.376Z,16.85
2023-06-07T01:59:00.587Z,16.87
2023-06-07T02:00:00.497Z,16.88
2023-06-07T02:01:00.625Z,16.87
2023-06-07T02:02:00.780Z,16.88
2023-06-07T02:03:00.596Z,16.90
2023-06-07T02:03:59.677Z,16.90
2023-06-07T02:04:59.651Z,16.90
2023-06-07T02:05:59.646Z,16.91
2023-06-07T02:07:00.655Z,16.95
2023-06-07T02:08:00.695Z,16.96
2023-06-07T02:09:00.813Z,16.98
2023-06-07T02:09:59.840Z,16.99
2023-06-07T02:10:59.894Z,17.00
2023-06-07T02:11:59.966Z,17.05
2023-06-07T02:12:59.981Z,17.07
2023-06-07T02:14:01.013Z,17.00
2023-06-07T02:15:00.108Z,17.09
2023-06-07T02:16:00.145Z,17.12
2023-06-07T02:17:01.109Z,17.14
2023-06-07T02:18:00.359Z,17.14
2023-06-07T02:19:00.240Z,17.12
2023-06-07T02:20:00.421Z,17.12
2023-06-07T02:21:00.314Z,17.15
2023-06-07T02:21:59.339Z,17.17
2023-06-07T02:23:00.364Z,17.18
2023-06-07T02:24:00.467Z,17.18
2023-06-07T02:24:59.498Z,17.20
2023-06-07T02:25:59.703Z,17.18
2023-06-07T02:26:59.602Z,17.17
2023-06-07T02:28:00.612Z,17.20
2023-06-07T02:28:59.773Z,17.21
2023-06-07T02:29:59.722Z,17.21
2023-06-07T02:30:59.862Z,17.20
2023-06-07T02:31:59.794Z,17.22
2023-06-07T02:32:59.885Z,17.22
2023-06-07T02:33:59.853Z,17.21
2023-06-07T02:34:59.900Z,17.24
2023-06-07T02:35:59.963Z,17.24
2023-06-07T02:37:00.075Z,17.24
2023-06-07T02:38:00.030Z,17.24
2023-06-07T02:39:00.155Z,17.24
2023-06-07T02:40:00.112Z,17.24
2023-06-07T02:40:59.034Z,17.24
2023-06-07T02:41:59.134Z,17.24
2023-06-07T02:42:59.093Z,17.27
2023-06-07T02:43:59.162Z,17.24
2023-06-07T02:44:59.127Z,17.24
2023-06-07T02:46:00.052Z,17.24
2023-06-07T02:46:59.309Z,17.24
2023-06-07T02:47:59.345Z,17.22
2023-06-07T02:49:00.211Z,17.22
2023-06-07T02:50:00.364Z,17.20
2023-06-07T02:51:00.316Z,17.20
2023-06-07T02:51:59.351Z,17.20
2023-06-07T02:52:59.391Z,17.18
2023-06-07T02:53:59.420Z,17.17
2023-06-07T02:54:59.586Z,17.21
2023-06-07T02:55:59.507Z,17.21
2023-06-07T02:56:59.526Z,17.21
2023-06-07T02:57:59.596Z,17.24
2023-06-07T02:59:00.590Z,17.24
2023-06-07T02:59:59.679Z,17.27
2023-06-07T03:00:59.772Z,17.28
2023-06-07T03:01:59.851Z,17.28
2023-06-07T03:02:59.970Z,17.27
2023-06-07T03:03:59.723Z,17.25
2023-06-07T03:05:00.713Z,17.21
2023-06-07T03:05:59.725Z,17.17
2023-06-07T03:06:58.744Z,17.14
2023-06-07T03:07:58.831Z,17.10
2023-06-07T03:08:58.784Z,17.05
2023-06-07T03:09:59.889Z,17.02
2023-06-07T03:10:58.876Z,17.00
2023-06-07T03:11:59.939Z,16.99
2023-06-07T03:12:58.914Z,16.91
2023-06-07T03:13:58.945Z,16.85
2023-06-07T03:14:58.924Z,16.84
2023-06-07T03:15:58.964Z,16.78
2023-06-07T03:16:59.193Z,16.72
2023-06-07T03:17:59.306Z,16.66
2023-06-07T03:18:59.144Z,16.62
2023-06-07T03:19:59.130Z,16.54
2023-06-07T03:20:59.143Z,16.45
2023-06-07T03:21:59.229Z,16.40
2023-06-07T03:22:59.328Z,16.34
2023-06-07T03:23:59.308Z,16.30
2023-06-07T03:24:59.258Z,16.29
2023-06-07T03:25:59.404Z,16.26
2023-06-07T03:26:59.310Z,16.25
2023-06-07T03:27:59.512Z,16.23
2023-06-07T03:28:59.373Z,16.25
2023-06-07T03:29:59.376Z,16.26
2023-06-07T03:30:59.483Z,16.26
2023-06-07T03:31:58.554Z,16.27
2023-06-07T03:32:58.491Z,16.30
2023-06-07T03:33:58.609Z,16.29
2023-06-07T03:34:59.439Z,16.30
2023-06-07T03:35:58.509Z,16.34
2023-06-07T03:36:58.524Z,16.32
2023-06-07T03:37:58.572Z,16.30
2023-06-07T03:38:58.674Z,16.30
2023-06-07T03:39:58.661Z,16.33
2023-06-07T03:40:58.786Z,16.37
2023-06-07T03:41:58.790Z,16.41
2023-06-07T03:42:58.785Z,16.42
2023-06-07T03:43:58.852Z,16.40
2023-06-07T03:44:58.853Z,16.42
2023-06-07T03:45:58.901Z,16.41
2023-06-07T03:46:59.905Z,16.42
2023-06-07T03:48:00.083Z,16.45
2023-06-07T03:48:59.139Z,16.44
2023-06-07T03:49:59.127Z,16.45
2023-06-07T03:50:59.086Z,16.48
2023-06-07T03:51:59.125Z,16.50
2023-06-07T03:52:58.204Z,16.51
2023-06-07T03:53:58.313Z,16.54
2023-06-07T03:54:58.389Z,16.55
2023-06-07T03:55:58.429Z,16.55
2023-06-07T03:56:59.346Z,16.60
2023-06-07T03:57:59.390Z,16.62
2023-06-07T03:58:58.557Z,16.60
2023-06-07T03:59:58.600Z,16.66
2023-06-07T04:00:58.578Z,16.60
2023-06-07T04:01:59.557Z,16.55
2023-06-07T04:02:58.679Z,16.50
2023-06-07T04:03:58.895Z,16.48
2023-06-07T04:04:58.844Z,16.47
2023-06-07T04:05:58.717Z,16.44
2023-06-07T04:06:58.778Z,16.44
2023-06-07T04:07:58.813Z,16.41
2023-06-07T04:08:58.813Z,16.41
2023-06-07T04:09:58.848Z,16.45
2023-06-07T04:10:58.871Z,16.47
2023-06-07T04:11:57.824Z,16.48
2023-06-07T04:12:57.909Z,16.42
2023-06-07T04:13:58.859Z,16.50
2023-06-07T04:14:58.877Z,16.52
2023-06-07T04:15:58.023Z,16.51
2023-06-07T04:16:59.048Z,16.55
2023-06-07T04:17:58.016Z,16.55
2023-06-07T04:18:59.650Z,16.51
2023-06-07T04:19:59.004Z,16.48
2023-06-07T04:20:58.127Z,16.45
2023-06-07T04:21:58.092Z,16.40
2023-06-07T04:22:58.082Z,16.27
2023-06-07T04:23:59.246Z,16.23
2023-06-07T04:24:59.098Z,16.16
2023-06-07T04:25:58.143Z,16.11
2023-06-07T04:26:58.221Z,16.08
2023-06-07T04:27:58.206Z,16.10
2023-06-07T04:28:58.297Z,16.11
2023-06-07T04:29:58.276Z,16.11
2023-06-07T04:30:58.520Z,16.13
2023-06-07T04:31:58.420Z,16.14
2023-06-07T04:32:58.408Z,16.14
2023-06-07T04:33:59.305Z,16.23
2023-06-07T04:34:59.362Z,16.22
2023-06-07T04:35:58.518Z,16.26
2023-06-07T04:36:59.358Z,16.30
2023-06-07T04:37:59.360Z,16.25
2023-06-07T04:38:59.091Z,16.27
2023-06-07T04:39:59.429Z,16.27
2023-06-07T04:41:00.931Z,16.22
2023-06-07T04:41:58.500Z,16.08
2023-06-07T04:42:57.595Z,15.99
2023-06-07T04:43:59.527Z,15.95
2023-06-07T04:44:58.478Z,15.92
2023-06-07T04:45:58.551Z,15.88
2023-06-07T04:47:03.388Z,15.91
2023-06-07T04:47:58.655Z,15.91
2023-06-07T04:48:58.638Z,15.89
2023-06-07T04:49:57.629Z,15.88
2023-06-07T04:50:57.652Z,15.84
2023-06-07T04:51:57.738Z,15.78
2023-06-07T04:52:57.650Z,15.76
2023-06-07T04:53:57.657Z,15.76
2023-06-07T04:54:57.641Z,15.77
2023-06-07T04:55:58.628Z,15.78
2023-06-07T04:56:57.731Z,15.78
2023-06-07T04:57:58.667Z,15.81
2023-06-07T04:58:57.734Z,15.84
2023-06-07T04:59:57.700Z,15.86
2023-06-07T05:00:58.661Z,15.89
2023-06-07T05:01:58.755Z,15.84
2023-06-07T05:02:57.802Z,15.85
2023-06-07T05:03:57.782Z,15.76
2023-06-07T05:04:57.891Z,15.71
2023-06-07T05:05:58.782Z,15.74
2023-06-07T05:06:57.880Z,15.70
2023-06-07T05:07:58.815Z,15.67
2023-06-07T05:08:57.895Z,15.62
2023-06-07T05:09:58.002Z,15.60
2023-06-07T05:10:58.007Z,15.60
2023-06-07T05:11:58.056Z,15.64
2023-06-07T05:12:58.974Z,15.62
2023-06-07T05:13:58.010Z,15.62
2023-06-07T05:14:56.994Z,15.66
2023-06-07T05:15:58.135Z,15.68
2023-06-07T05:16:57.013Z,15.68
2023-06-07T05:17:57.115Z,15.71
2023-06-07T05:18:57.034Z,15.73
2023-06-07T05:19:57.069Z,15.70
2023-06-07T05:20:58.035Z,15.70
2023-06-07T05:21:57.090Z,15.68
2023-06-07T05:22:58.097Z,15.73
2023-06-07T05:23:57.207Z,15.74
2023-06-07T05:24:57.186Z,15.73
2023-06-07T05:25:57.187Z,15.73
2023-06-07T05:26:57.180Z,15.73
2023-06-07T05:28:11.498Z,15.77
2023-06-07T05:28:58.166Z,15.77
2023-06-07T05:29:57.210Z,15.81
2023-06-07T05:30:57.236Z,15.81
2023-06-07T05:31:57.277Z,15.84
2023-06-07T05:32:57.291Z,15.86
2023-06-07T05:33:58.195Z,15.84
2023-06-07T05:34:58.230Z,15.78
2023-06-07T05:35:57.371Z,15.76
2023-06-07T05:36:58.238Z,15.76
2023-06-07T05:37:58.338Z,15.76
2023-06-07T05:38:57.350Z,15.77
2023-06-07T05:39:58.356Z,15.77
2023-06-07T05:40:57.441Z,15.78
2023-06-07T05:41:57.416Z,15.80
2023-06-07T05:42:57.794Z,15.86
2023-06-07T05:43:57.473Z,15.80
2023-06-07T05:44:57.457Z,15.80
2023-06-07T05:45:57.498Z,15.80
2023-06-07T05:46:57.497Z,15.78
2023-06-07T05:47:58.572Z,15.78
2023-06-07T05:48:57.527Z,15.74
2023-06-07T05:49:57.541Z,15.74
2023-06-07T05:50:56.541Z,15.73
2023-06-07T05:51:56.674Z,15.74
2023-06-07T05:52:56.579Z,15.74
2023-06-07T05:53:56.622Z,15.77
2023-06-07T05:54:57.599Z,15.77
2023-06-07T05:55:57.624Z,15.78
2023-06-07T05:56:56.713Z,15.81
2023-06-07T05:57:56.693Z,15.81
2023-06-07T05:58:57.703Z,15.84
2023-06-07T05:59:57.680Z,15.80
2023-06-07T06:00:56.747Z,15.77
2023-06-07T06:01:56.843Z,15.80
2023-06-07T06:02:56.953Z,15.71
2023-06-07T06:03:56.773Z,15.70
2023-06-07T06:04:56.839Z,15.70
2023-06-07T06:05:56.811Z,15.68
2023-06-07T06:06:56.954Z,15.66
2023-06-07T06:07:56.883Z,15.67
2023-06-07T06:08:57.840Z,15.67
2023-06-07T06:09:56.929Z,15.67
2023-06-07T06:10:57.855Z,15.70
2023-06-07T06:11:56.966Z,15.67
2023-06-07T06:12:57.150Z,15.70
2023-06-07T06:13:56.949Z,15.68
2023-06-07T06:14:56.959Z,15.71
2023-06-07T06:15:56.979Z,15.71
2023-06-07T06:16:58.082Z,15.73
2023-06-07T06:17:57.248Z,15.76
2023-06-07T06:18:57.109Z,15.78
2023-06-07T06:19:58.047Z,15.77
2023-06-07T06:20:57.166Z,15.77
2023-06-07T06:21:57.130Z,15.77
2023-06-07T06:22:56.123Z,15.78
2023-06-07T06:23:56.153Z,15.80
2023-06-07T06:24:56.195Z,15.81
2023-06-07T06:25:56.166Z,15.81
2023-06-07T06:26:56.186Z,15.85
2023-06-07T06:27:56.357Z,15.86
2023-06-07T06:28:57.179Z,15.88
2023-06-07T06:29:56.241Z,15.89
2023-06-07T06:30:56.332Z,15.89
2023-06-07T06:31:56.262Z,15.86
2023-06-07T06:32:56.325Z,15.86
2023-06-07T06:33:56.345Z,15.85
2023-06-07T06:34:56.391Z,15.85
2023-06-07T06:35:56.343Z,15.86
2023-06-07T06:36:56.372Z,15.86
2023-06-07T06:37:56.384Z,15.88
2023-06-07T06:38:57.474Z,15.88
2023-06-07T06:39:56.412Z,15.91
2023-06-07T06:40:57.417Z,15.92
2023-06-07T06:41:56.454Z,15.92
2023-06-07T06:42:56.504Z,15.95
2023-06-07T06:43:56.522Z,15.95
2023-06-07T06:44:56.554Z,15.93
2023-06-07T06:45:56.576Z,15.95
2023-06-07T06:46:56.668Z,15.98
2023-06-07T06:47:57.621Z,15.99
2023-06-07T06:49:10.668Z,15.98
2023-06-07T06:49:57.703Z,16.01
2023-06-07T06:50:56.765Z,16.03
2023-06-07T06:51:56.726Z,16.04
2023-06-07T06:52:56.660Z,16.06
2023-06-07T06:53:55.712Z,16.07
2023-06-07T06:54:56.814Z,16.06
2023-06-07T06:55:57.761Z,16.08
2023-06-07T06:56:55.759Z,16.10
2023-06-07T06:57:55.813Z,16.11
2023-06-07T06:58:55.808Z,16.13
2023-06-07T06:59:56.796Z,16.17
2023-06-07T07:00:56.895Z,16.18
2023-06-07T07:01:56.105Z,16.18
2023-06-07T07:02:56.057Z,16.17
2023-06-07T07:03:56.930Z,16.22
2023-06-07T07:04:56.934Z,16.22
2023-06-07T07:05:56.966Z,16.22
2023-06-07T07:06:56.999Z,16.18
2023-06-07T07:07:57.062Z,16.22
2023-06-07T07:08:57.061Z,16.18
2023-06-07T07:09:57.119Z,16.16
2023-06-07T07:10:57.146Z,16.13
2023-06-07T07:11:57.182Z,16.13
2023-06-07T07:12:57.191Z,16.11
2023-06-07T07:13:56.284Z,16.11
2023-06-07T07:14:56.326Z,16.11
2023-06-07T07:15:57.674Z,16.14
2023-06-07T07:16:56.523Z,16.13
2023-06-07T07:17:55.470Z,16.14
2023-06-07T07:18:56.433Z,16.14
2023-06-07T07:19:55.430Z,16.16
2023-06-07T07:20:56.457Z,16.17
2023-06-07T07:21:55.539Z,16.17
2023-06-07T07:22:55.531Z,16.18
2023-06-07T07:23:56.527Z,16.25
2023-06-07T07:24:56.546Z,16.25
2023-06-07T07:25:56.629Z,16.26
2023-06-07T07:26:55.627Z,16.27
2023-06-07T07:27:55.695Z,16.30
2023-06-07T07:28:56.624Z,16.36
2023-06-07T07:29:55.742Z,16.37
2023-06-07T07:30:55.742Z,16.40
2023-06-07T07:31:55.788Z,16.44
2023-06-07T07:32:55.844Z,16.42
2023-06-07T07:33:55.856Z,16.44
2023-06-07T07:34:55.961Z,16.41
2023-06-07T07:35:55.922Z,16.44
2023-06-07T07:36:55.974Z,16.41
2023-06-07T07:37:55.995Z,16.36
2023-06-07T07:38:56.023Z,16.36
2023-06-07T07:39:56.066Z,16.37
2023-06-07T07:40:56.063Z,16.41
2023-06-07T07:41:55.081Z,16.41
2023-06-07T07:42:56.178Z,16.44
2023-06-07T07:43:56.238Z,16.44
2023-06-07T07:44:56.141Z,16.44
2023-06-07T07:45:55.223Z,16.44
2023-06-07T07:46:55.237Z,16.45
2023-06-07T07:47:56.250Z,16.50
2023-06-07T07:48:55.307Z,16.51
2023-06-07T07:49:56.241Z,16.57
2023-06-07T07:50:55.339Z,16.62
2023-06-07T07:51:55.367Z,16.65
2023-06-07T07:52:55.404Z,16.69
2023-06-07T07:53:56.393Z,16.75
2023-06-07T07:54:56.433Z,16.82
2023-06-07T07:55:55.499Z,16.85
2023-06-07T07:56:55.566Z,16.88
2023-06-07T07:57:55.554Z,16.91
2023-06-07T07:58:55.590Z,16.98
2023-06-07T07:59:55.692Z,17.02
2023-06-07T08:00:55.784Z,17.07
2023-06-07T08:01:55.661Z,17.10
2023-06-07T08:02:55.817Z,17.14
2023-06-07T08:03:55.816Z,17.17
2023-06-07T08:04:55.819Z,17.20
2023-06-07T08:05:55.800Z,17.27
2023-06-07T08:06:54.752Z,17.25
2023-06-07T08:07:54.844Z,17.30
2023-06-07T08:08:54.823Z,17.38
2023-06-07T08:09:54.830Z,17.42
2023-06-07T08:10:55.813Z,17.46
2023-06-07T08:11:55.849Z,17.54
2023-06-07T08:12:55.866Z,17.58
2023-06-07T08:13:54.957Z,17.65
2023-06-07T08:14:55.026Z,17.68
2023-06-07T08:15:55.054Z,17.70
2023-06-07T08:16:55.015Z,17.74
2023-06-07T08:17:55.068Z,17.79
2023-06-07T08:18:55.157Z,17.83
2023-06-07T08:19:55.100Z,17.86
2023-06-07T08:20:56.082Z,17.86
2023-06-07T08:21:56.093Z,17.89
2023-06-07T08:22:56.107Z,17.95
2023-06-07T08:23:56.371Z,17.99
2023-06-07T08:24:55.388Z,18.04
2023-06-07T08:25:55.249Z,18.10
2023-06-07T08:26:55.271Z,18.11
2023-06-07T08:27:56.281Z,18.14
2023-06-07T08:28:55.341Z,18.17
2023-06-07T08:29:55.469Z,18.19
2023-06-07T08:30:55.399Z,18.23
2023-06-07T08:31:54.479Z,18.29
2023-06-07T08:32:54.397Z,18.29
2023-06-07T08:33:54.419Z,18.31
2023-06-07T08:34:54.429Z,18.36
2023-06-07T08:35:54.464Z,18.41
2023-06-07T08:36:54.475Z,18.42
2023-06-07T08:37:54.499Z,18.41
2023-06-07T08:38:54.553Z,18.41
2023-06-07T08:39:54.548Z,18.39
2023-06-07T08:40:54.633Z,18.41
2023-06-07T08:41:54.551Z,18.39
2023-06-07T08:42:55.517Z,18.41
2023-06-07T08:43:55.542Z,18.44
2023-06-07T08:44:54.580Z,18.46
2023-06-07T08:45:54.741Z,18.47
2023-06-07T08:46:54.632Z,18.53
2023-06-07T08:47:54.706Z,18.56
2023-06-07T08:48:54.622Z,18.62
2023-06-07T08:49:54.723Z,18.66
2023-06-07T08:50:54.684Z,18.69
2023-06-07T08:52:03.110Z,18.69
2023-06-07T08:52:55.743Z,18.74
2023-06-07T08:53:54.740Z,18.79
2023-06-07T08:54:55.723Z,18.86
2023-06-07T08:55:54.781Z,18.89
2023-06-07T08:56:54.829Z,18.94
2023-06-07T08:57:54.845Z,19.01
2023-06-07T08:58:55.783Z,19.02
2023-06-07T08:59:54.806Z,19.05
2023-06-07T09:00:54.848Z,19.12
2023-06-07T09:01:54.920Z,19.12
2023-06-07T09:02:54.950Z,19.10
2023-06-07T09:03:54.994Z,19.09
2023-06-07T09:04:55.838Z,19.13
2023-06-07T09:05:54.880Z,19.23
2023-06-07T09:06:54.905Z,19.31
2023-06-07T09:07:54.898Z,19.38
2023-06-07T09:08:54.938Z,19.45
2023-06-07T09:09:54.893Z,19.47
2023-06-07T09:10:54.831Z,19.50
2023-06-07T09:11:54.862Z,19.49
2023-06-07T09:12:53.950Z,19.53
2023-06-07T09:13:53.912Z,19.62
2023-06-07T09:14:54.297Z,19.68
2023-06-07T09:15:53.903Z,19.79
2023-06-07T09:16:53.982Z,19.85
2023-06-07T09:17:54.055Z,19.95
2023-06-07T09:18:54.160Z,20.05
2023-06-07T09:19:53.872Z,20.08
2023-06-07T09:20:53.848Z,20.08
2023-06-07T09:21:53.840Z,20.10
2023-06-07T09:22:53.868Z,20.07
2023-06-07T09:23:53.835Z,20.07
2023-06-07T09:24:54.214Z,20.02
2023-06-07T09:25:53.835Z,19.95
2023-06-07T09:26:53.853Z,19.86
2023-06-07T09:27:53.832Z,19.85
2023-06-07T09:28:53.850Z,19.86
2023-06-07T09:29:53.829Z,19.87
2023-06-07T09:30:54.051Z,19.89
2023-06-07T09:31:54.878Z,19.89
2023-06-07T09:32:53.879Z,19.89
2023-06-07T09:33:53.849Z,19.92
2023-06-07T09:34:54.846Z,19.94
2023-06-07T09:35:53.966Z,19.95
2023-06-07T09:36:54.028Z,20.00
2023-06-07T09:37:53.892Z,20.05
2023-06-07T09:38:53.905Z,20.02
2023-06-07T09:39:53.928Z,19.92
2023-06-07T09:40:53.938Z,19.89
2023-06-07T09:41:53.913Z,19.87
2023-06-07T09:42:54.071Z,19.78
2023-06-07T09:43:53.895Z,19.76
2023-06-07T09:44:53.885Z,19.71
2023-06-07T09:45:54.884Z,19.71
2023-06-07T09:46:53.996Z,19.67
2023-06-07T09:47:53.968Z,19.65
2023-06-07T09:48:54.173Z,19.61
2023-06-07T09:49:53.905Z,19.53
2023-06-07T09:50:53.915Z,19.55
2023-06-07T09:51:53.920Z,19.55
2023-06-07T09:52:54.901Z,19.52
2023-06-07T09:53:53.911Z,19.55
2023-06-07T09:54:53.941Z,19.58
2023-06-07T09:55:53.979Z,19.62
2023-06-07T09:56:54.007Z,19.61
2023-06-07T09:57:53.972Z,19.58
2023-06-07T09:58:54.033Z,19.60
2023-06-07T09:59:54.070Z,19.61
2023-06-07T10:00:54.170Z,19.61
2023-06-07T10:01:55.193Z,19.58
2023-06-07T10:02:55.181Z,19.64
2023-06-07T10:03:55.207Z,19.64
2023-06-07T10:04:54.423Z,19.67
2023-06-07T10:05:53.407Z,19.70
2023-06-07T10:06:53.252Z,19.71
2023-06-07T10:07:53.369Z,19.76
2023-06-07T10:08:53.357Z,19.79
2023-06-07T10:09:53.374Z,19.83
2023-06-07T10:10:53.460Z,19.89
2023-06-07T10:11:54.393Z,19.92
2023-06-07T10:12:54.466Z,19.95
2023-06-07T10:13:54.448Z,19.98
2023-06-07T10:14:53.537Z,20.02
2023-06-07T10:15:53.670Z,20.05
2023-06-07T10:16:53.702Z,20.10
2023-06-07T10:17:54.750Z,20.15
2023-06-07T10:18:54.672Z,20.17
2023-06-07T10:19:53.818Z,20.15
2023-06-07T10:20:53.740Z,20.19
2023-06-07T10:21:53.839Z,20.22
2023-06-07T10:22:54.816Z,20.25
2023-06-07T10:23:54.820Z,20.27
2023-06-07T10:24:54.879Z,20.33
2023-06-07T10:25:53.873Z,20.35
2023-06-07T10:26:53.903Z,20.40
2023-06-07T10:27:52.906Z,20.41
2023-06-07T10:28:52.897Z,20.50
2023-06-07T10:29:52.886Z,20.57
2023-06-07T10:30:53.841Z,20.64
2023-06-07T10:31:52.961Z,20.73
2023-06-07T10:32:52.948Z,20.79
2023-06-07T10:33:52.943Z,20.87
2023-06-07T10:34:53.964Z,20.91
2023-06-07T10:35:53.881Z,20.83
2023-06-07T10:36:52.986Z,20.87
2023-06-07T10:37:53.015Z,20.90
2023-06-07T10:38:52.914Z,21.01
2023-06-07T10:39:54.026Z,21.12
2023-06-07T10:40:53.877Z,21.22
2023-06-07T10:41:52.941Z,21.34
2023-06-07T10:42:52.947Z,21.48
2023-06-07T10:43:52.935Z,21.56
2023-06-07T10:44:53.041Z,21.71
2023-06-07T10:45:52.971Z,21.86
2023-06-07T10:46:53.905Z,21.94
2023-06-07T10:47:53.102Z,22.01
2023-06-07T10:48:53.891Z,22.02
2023-06-07T10:49:52.906Z,21.94
2023-06-07T10:50:52.876Z,22.01
2023-06-07T10:51:52.999Z,22.06
2023-06-07T10:52:52.836Z,22.12
2023-06-07T10:53:52.864Z,22.15
2023-06-07T10:54:52.818Z,22.24
2023-06-07T10:55:52.910Z,22.29
2023-06-07T10:56:52.832Z,22.23
2023-06-07T10:57:52.760Z,22.14
2023-06-07T10:58:52.779Z,22.05
2023-06-07T10:59:52.777Z,21.99
2023-06-07T11:00:52.834Z,22.02
2023-06-07T11:01:52.868Z,22.06
2023-06-07T11:02:52.873Z,22.17
2023-06-07T11:03:52.791Z,22.24
2023-06-07T11:04:52.730Z,22.39
2023-06-07T11:05:52.751Z,22.49
2023-06-07T11:06:53.494Z,22.63
2023-06-07T11:07:53.529Z,22.67
2023-06-07T11:08:53.565Z,22.66
2023-06-07T11:09:52.684Z,22.60
2023-06-07T11:10:52.691Z,22.56
2023-06-07T11:11:52.868Z,22.60
2023-06-07T11:12:52.740Z,22.69
2023-06-07T11:13:52.759Z,22.81
2023-06-07T11:14:52.826Z,22.85
2023-06-07T11:15:52.868Z,22.96
2023-06-07T11:16:52.938Z,23.01
2023-06-07T11:17:52.920Z,23.09
2023-06-07T11:18:52.888Z,23.14
2023-06-07T11:19:52.897Z,23.16
2023-06-07T11:20:53.491Z,23.19
2023-06-07T11:21:52.951Z,23.22
2023-06-07T11:22:53.030Z,23.25
2023-06-07T11:23:54.004Z,23.31
2023-06-07T11:24:52.994Z,23.31
2023-06-07T11:25:53.128Z,23.31
2023-06-07T11:26:53.039Z,23.26
2023-06-07T11:27:53.068Z,23.29
2023-06-07T11:28:53.049Z,23.26
2023-06-07T11:29:54.055Z,23.21
2023-06-07T11:30:52.116Z,23.16
2023-06-07T11:31:52.562Z,23.16
2023-06-07T11:32:53.189Z,23.06
2023-06-07T11:33:52.197Z,23.03
2023-06-07T11:34:52.188Z,22.99
2023-06-07T11:35:52.214Z,23.01
2023-06-07T11:36:52.185Z,22.99
2023-06-07T11:37:52.235Z,22.94
2023-06-07T11:38:53.178Z,22.97
2023-06-07T11:39:52.178Z,22.96
2023-06-07T11:40:53.188Z,22.85
2023-06-07T11:41:53.200Z,22.81
2023-06-07T11:42:52.236Z,22.78
2023-06-07T11:43:52.251Z,22.70
2023-06-07T11:44:52.232Z,22.61
2023-06-07T11:45:52.246Z,22.52
2023-06-07T11:46:53.303Z,22.44
2023-06-07T11:47:55.345Z,22.36
2023-06-07T11:48:53.302Z,22.27
2023-06-07T11:49:53.390Z,22.09
2023-06-07T11:50:53.206Z,21.91
2023-06-07T11:51:53.293Z,21.68
2023-06-07T11:52:53.308Z,21.51
2023-06-07T11:53:52.302Z,21.45
2023-06-07T11:54:52.315Z,21.38
2023-06-07T11:55:52.316Z,21.31
2023-06-07T11:56:52.394Z,21.19
2023-06-07T11:57:52.408Z,21.11
2023-06-07T11:58:52.442Z,21.08
2023-06-07T11:59:52.516Z,20.97
2023-06-07T12:00:52.548Z,20.90
2023-06-07T12:01:52.649Z,20.88
2023-06-07T12:02:52.727Z,20.87
2023-06-07T12:03:51.719Z,20.85
2023-06-07T12:04:52.026Z,20.78
2023-06-07T12:05:52.850Z,20.78
2023-06-07T12:06:51.850Z,20.78
2023-06-07T12:07:52.301Z,20.71
2023-06-07T12:08:51.858Z,20.73
2023-06-07T12:09:51.895Z,20.72
2023-06-07T12:10:52.892Z,20.68
2023-06-07T12:11:52.085Z,20.63
2023-06-07T12:12:52.013Z,20.63
2023-06-07T12:13:52.051Z,20.64
2023-06-07T12:14:52.985Z,20.60
2023-06-07T12:15:53.130Z,20.64
2023-06-07T12:16:52.211Z,20.64
2023-06-07T12:17:52.288Z,20.57
2023-06-07T12:18:53.132Z,20.46
2023-06-07T12:19:52.266Z,20.51
2023-06-07T12:20:52.256Z,20.56
2023-06-07T12:21:52.355Z,20.63
2023-06-07T12:22:53.356Z,20.66
2023-06-07T12:23:51.447Z,20.66
2023-06-07T12:24:51.429Z,20.72
2023-06-07T12:25:51.513Z,20.82
2023-06-07T12:26:51.449Z,20.93
2023-06-07T12:27:51.620Z,21.00
2023-06-07T12:28:51.527Z,21.05
2023-06-07T12:29:52.478Z,21.01
2023-06-07T12:30:52.538Z,20.93
2023-06-07T12:31:51.653Z,20.88
2023-06-07T12:32:51.713Z,20.85
2023-06-07T12:33:51.689Z,20.82
2023-06-07T12:34:51.713Z,20.83
2023-06-07T12:35:51.761Z,20.82
2023-06-07T12:36:51.770Z,20.81
2023-06-07T12:37:51.859Z,20.75
2023-06-07T12:38:51.914Z,20.66
2023-06-07T12:39:52.551Z,20.61
2023-06-07T12:40:52.084Z,20.50
2023-06-07T12:41:52.037Z,20.42
2023-06-07T12:42:52.152Z,20.44
2023-06-07T12:43:52.124Z,20.41
2023-06-07T12:44:52.097Z,20.37
2023-06-07T12:45:51.189Z,20.33
2023-06-07T12:46:52.245Z,20.19
2023-06-07T12:47:52.203Z,20.10
2023-06-07T12:48:51.448Z,20.07
2023-06-07T12:49:51.346Z,20.04
2023-06-07T12:50:52.264Z,19.98
2023-06-07T12:51:51.350Z,19.94